createdAt,value
2022-10-25T00:00:30.524Z,80.00
2022-10-25T00:03:33.314Z,80.10
2022-10-25T00:06:24.558Z,80.41
2022-10-25T00:09:23.277Z,80.19
2022-10-25T00:12:12.086Z,80.19
2022-10-25T00:15:03.141Z,80.32
2022-10-25T00:17:53.485Z,80.26
2022-10-25T00:20:40.369Z,80.22
2022-10-25T00:23:27.860Z,80.37
2022-10-25T00:26:18.034Z,80.85
2022-10-25T00:29:18.542Z,80.49
2022-10-25T00:32:18.360Z,80.60
2022-10-25T00:35:20.429Z,80.70
2022-10-25T00:38:13.056Z,81.17
2022-10-25T00:41:34.261Z,80.69
2022-10-25T00:45:24.101Z,81.25
2022-10-25T00:49:24.070Z,81.03
2022-10-25T01:06:54.626Z,80.80
2022-10-25T01:09:42.678Z,80.52
2022-10-25T01:12:29.646Z,80.66
2022-10-25T01:15:16.340Z,80.91
2022-10-25T01:18:22.022Z,80.94
2022-10-25T01:21:38.969Z,81.00
2022-10-25T01:24:37.606Z,81.22
2022-10-25T01:28:03.525Z,81.25
2022-10-25T01:31:20.854Z,81.04
2022-10-25T01:34:21.939Z,81.09
2022-10-25T01:37:38.874Z,81.29
2022-10-25T01:40:53.592Z,81.76
2022-10-25T01:43:57.644Z,81.50
2022-10-25T01:46:51.839Z,81.65
2022-10-25T01:49:47.372Z,81.85
2022-10-25T01:52:34.248Z,81.94
2022-10-25T01:55:40.433Z,81.86
2022-10-25T01:58:52.295Z,81.78
2022-10-25T02:02:01.437Z,81.54
2022-10-25T02:04:59.386Z,81.72
2022-10-25T02:08:11.616Z,81.58
2022-10-25T02:11:16.965Z,81.35
2022-10-25T02:14:37.726Z,81.33
2022-10-25T02:17:27.514Z,81.04
2022-10-25T02:20:18.966Z,81.07
2022-10-25T02:23:06.408Z,81.18
2022-10-25T02:25:54.370Z,81.53
2022-10-25T02:28:42.191Z,81.45
2022-10-25T02:31:29.379Z,81.51
2022-10-25T02:34:18.509Z,81.12
2022-10-25T02:37:14.090Z,81.68
2022-10-25T02:40:01.762Z,81.19
2022-10-25T02:42:48.663Z,81.04
2022-10-25T02:45:35.526Z,80.93
2022-10-25T02:48:22.126Z,80.58
2022-10-25T02:51:10.564Z,80.51
2022-10-25T02:53:57.490Z,80.21
2022-10-25T02:56:44.505Z,80.36
2022-10-25T02:59:31.527Z,80.36
2022-10-25T03:02:18.500Z,80.59
2022-10-25T03:05:05.520Z,80.37
2022-10-25T03:07:52.532Z,80.20
2022-10-25T03:10:39.335Z,80.30
2022-10-25T03:13:26.618Z,80.39
2022-10-25T03:16:13.798Z,80.48
2022-10-25T03:19:00.804Z,80.31
2022-10-25T03:21:47.520Z,80.24
2022-10-25T03:24:34.492Z,80.09
2022-10-25T03:27:21.189Z,80.16
2022-10-25T03:30:08.416Z,79.74
2022-10-25T03:32:55.572Z,79.88
2022-10-25T03:35:42.592Z,80.20
2022-10-25T03:38:29.099Z,80.45
2022-10-25T03:41:16.209Z,80.25
2022-10-25T03:44:03.036Z,80.32
2022-10-25T03:46:49.908Z,80.57
2022-10-25T03:49:36.741Z,80.38
2022-10-25T03:52:25.657Z,80.26
2022-10-25T03:55:12.717Z,80.31
2022-10-25T03:57:59.805Z,80.66
2022-10-25T04:00:46.836Z,80.65
2022-10-25T04:03:33.907Z,80.92
2022-10-25T04:06:20.376Z,80.74
2022-10-25T04:09:07.574Z,80.87
2022-10-25T04:11:54.617Z,80.79
2022-10-25T04:14:41.230Z,80.64
2022-10-25T04:17:28.186Z,80.79
2022-10-25T04:20:15.377Z,80.98
2022-10-25T04:23:02.240Z,80.96
2022-10-25T04:25:49.966Z,81.34
2022-10-25T04:28:36.624Z,81.73
2022-10-25T04:31:24.306Z,81.84
2022-10-25T04:34:11.613Z,81.91
2022-10-25T04:36:58.834Z,81.98
2022-10-25T04:39:45.537Z,82.12
2022-10-25T04:42:35.800Z,82.40
2022-10-25T04:45:23.055Z,82.93
2022-10-25T04:48:10.128Z,82.66
2022-10-25T04:51:00.327Z,82.74
2022-10-25T04:53:49.113Z,82.76
2022-10-25T04:56:35.823Z,82.82
2022-10-25T04:59:22.858Z,83.05
2022-10-25T05:02:09.394Z,82.98
2022-10-25T05:04:56.153Z,83.13
2022-10-25T05:07:42.927Z,83.25
2022-10-25T05:10:29.863Z,83.13
2022-10-25T05:13:16.564Z,82.96
2022-10-25T05:16:06.173Z,82.89
2022-10-25T05:18:55.477Z,82.83
2022-10-25T05:21:42.273Z,82.77
2022-10-25T05:24:29.031Z,82.69
2022-10-25T05:27:16.306Z,82.66
2022-10-25T05:30:03.224Z,82.58
2022-10-25T05:32:51.031Z,82.68
2022-10-25T05:35:38.098Z,82.62
2022-10-25T05:38:34.291Z,82.76
2022-10-25T05:41:24.837Z,82.61
2022-10-25T05:44:11.806Z,82.61
2022-10-25T05:46:58.820Z,82.68
2022-10-25T05:49:45.771Z,82.55
2022-10-25T05:52:33.023Z,82.55
2022-10-25T05:55:19.851Z,82.73
2022-10-25T05:58:06.764Z,82.71
2022-10-25T06:00:53.485Z,82.74
2022-10-25T06:03:41.005Z,82.58
2022-10-25T06:06:28.045Z,82.70
2022-10-25T06:09:15.078Z,82.79
2022-10-25T06:12:03.884Z,82.68
2022-10-25T06:14:53.584Z,82.84
2022-10-25T06:17:40.554Z,82.86
2022-10-25T06:20:27.347Z,82.98
2022-10-25T06:23:14.424Z,83.10
2022-10-25T06:26:15.429Z,83.10
2022-10-25T06:29:04.223Z,82.73
2022-10-25T06:31:51.917Z,82.85
2022-10-25T06:34:38.968Z,82.89
2022-10-25T06:37:25.631Z,83.16
2022-10-25T06:40:12.734Z,83.50
2022-10-25T06:42:59.965Z,83.44
2022-10-25T06:45:46.485Z,83.35
2022-10-25T06:48:33.733Z,83.29
2022-10-25T06:51:22.307Z,83.44
2022-10-25T06:54:10.344Z,83.42
2022-10-25T06:56:58.126Z,83.62
2022-10-25T06:59:46.157Z,83.97
2022-10-25T07:02:32.984Z,84.19
2022-10-25T07:05:20.257Z,83.73
2022-10-25T07:08:07.705Z,83.03
2022-10-25T07:10:58.489Z,82.74
2022-10-25T07:13:45.954Z,82.70
2022-10-25T07:16:33.235Z,82.52
2022-10-25T07:19:20.174Z,82.46
2022-10-25T07:22:07.158Z,82.22
2022-10-25T07:24:54.149Z,82.37
2022-10-25T07:27:41.415Z,83.27
2022-10-25T07:30:28.049Z,84.21
2022-10-25T07:33:16.614Z,83.67
2022-10-25T07:36:10.676Z,81.03
2022-10-25T07:38:58.681Z,80.14
2022-10-25T07:41:50.075Z,80.18
2022-10-25T07:44:37.213Z,80.40
2022-10-25T07:47:24.251Z,80.26
2022-10-25T07:50:11.028Z,80.58
2022-10-25T07:52:59.192Z,80.07
2022-10-25T07:55:54.864Z,80.26
2022-10-25T07:58:41.827Z,80.31
2022-10-25T08:01:29.540Z,80.22
2022-10-25T08:04:16.937Z,80.84
2022-10-25T08:07:04.321Z,81.16
2022-10-25T08:09:51.331Z,81.38
2022-10-25T08:12:38.057Z,81.40
2022-10-25T08:15:26.463Z,81.65
2022-10-25T08:18:13.523Z,81.52
2022-10-25T08:21:04.665Z,81.68
2022-10-25T08:23:51.586Z,81.55
2022-10-25T08:26:39.439Z,81.58
2022-10-25T08:29:26.974Z,81.57
2022-10-25T08:32:14.364Z,81.57
2022-10-25T08:35:01.283Z,81.61
2022-10-25T08:37:48.758Z,81.53
2022-10-25T08:41:03.565Z,81.84
2022-10-25T08:44:04.327Z,81.65
2022-10-25T08:47:29.873Z,81.83
2022-10-25T08:50:33.406Z,82.07
2022-10-25T08:53:25.320Z,82.10
2022-10-25T08:56:17.405Z,82.58
2022-10-25T08:59:05.475Z,82.50
2022-10-25T09:01:57.755Z,82.54
2022-10-25T09:04:44.908Z,82.30
2022-10-25T09:07:42.752Z,82.51
2022-10-25T09:10:50.261Z,82.74
2022-10-25T09:13:40.212Z,82.67
2022-10-25T09:16:47.213Z,82.76
2022-10-25T09:20:02.452Z,82.67
2022-10-25T09:22:57.500Z,82.83
2022-10-25T09:26:05.661Z,83.24
2022-10-25T09:29:05.693Z,83.22
2022-10-25T09:31:57.478Z,83.28
2022-10-25T09:34:44.532Z,82.58
2022-10-25T09:37:39.996Z,82.54
2022-10-25T09:40:47.607Z,82.61
2022-10-25T09:43:44.754Z,82.32
2022-10-25T09:46:42.486Z,82.52
2022-10-25T09:49:46.954Z,82.31
2022-10-25T09:53:01.596Z,82.48
2022-10-25T09:56:00.282Z,83.52
2022-10-25T09:58:47.346Z,83.39
2022-10-25T10:01:38.101Z,80.64
2022-10-25T10:04:36.097Z,80.92
2022-10-25T10:07:43.685Z,79.97
2022-10-25T10:10:34.819Z,78.37
2022-10-25T10:13:44.931Z,78.46
2022-10-25T10:17:01.331Z,79.61
2022-10-25T10:20:17.287Z,78.82
2022-10-25T10:23:06.412Z,77.76
2022-10-25T10:25:55.749Z,77.04
2022-10-25T10:28:48.353Z,76.77
2022-10-25T10:31:41.578Z,75.03
2022-10-25T10:34:52.456Z,74.82
2022-10-25T10:37:38.969Z,74.62
2022-10-25T10:40:26.039Z,75.73
2022-10-25T10:43:30.607Z,75.08
2022-10-25T10:46:24.867Z,74.66
2022-10-25T10:49:12.424Z,74.35
2022-10-25T10:52:00.748Z,75.32
2022-10-25T10:54:50.658Z,75.22
2022-10-25T10:57:37.753Z,74.81
2022-10-25T11:00:27.941Z,75.88
2022-10-25T11:03:53.972Z,76.38
2022-10-25T11:06:47.162Z,75.78
2022-10-25T11:09:33.933Z,75.64
2022-10-25T11:12:22.315Z,75.85
2022-10-25T11:15:14.520Z,76.21
2022-10-25T11:18:05.008Z,75.32
2022-10-25T11:21:05.570Z,76.12
2022-10-25T11:24:24.227Z,76.52
2022-10-25T11:27:11.756Z,75.72
2022-10-25T11:30:16.974Z,75.74
2022-10-25T11:33:25.403Z,75.75
2022-10-25T11:36:32.549Z,75.23
2022-10-25T11:39:39.312Z,75.55
2022-10-25T11:42:47.419Z,75.31
2022-10-25T11:45:44.954Z,74.92
2022-10-25T11:48:40.292Z,74.98
2022-10-25T11:51:58.619Z,74.55
2022-10-25T11:54:59.052Z,74.71
2022-10-25T11:58:11.406Z,74.56
2022-10-25T12:01:20.656Z,75.11
2022-10-25T12:04:37.990Z,74.02
2022-10-25T12:08:03.550Z,74.64
2022-10-25T12:10:56.770Z,74.21
2022-10-25T12:13:47.669Z,73.92
2022-10-25T12:16:36.592Z,73.53
2022-10-25T12:19:29.868Z,73.42
2022-10-25T12:22:31.119Z,73.03
2022-10-25T12:25:29.028Z,73.62
2022-10-25T12:28:41.420Z,73.10
2022-10-25T12:31:50.126Z,72.33
2022-10-25T12:34:43.236Z,72.59
2022-10-25T12:37:43.255Z,73.05
2022-10-25T12:40:41.575Z,72.84
2022-10-25T12:43:52.460Z,72.77
2022-10-25T12:47:01.311Z,71.16
2022-10-25T12:50:33.142Z,71.93
2022-10-25T12:53:42.612Z,71.87
2022-10-25T12:56:43.421Z,71.71
2022-10-25T12:59:33.213Z,71.53
2022-10-25T13:02:41.818Z,69.58
2022-10-25T13:06:00.943Z,69.37
2022-10-25T13:08:49.010Z,69.03
2022-10-25T13:11:40.831Z,67.55
2022-10-25T13:14:34.823Z,66.87
2022-10-25T13:17:21.719Z,68.09
2022-10-25T13:20:22.901Z,68.41
2022-10-25T13:23:52.086Z,68.86
2022-10-25T13:27:16.725Z,69.05
2022-10-25T13:30:07.538Z,69.46
2022-10-25T13:33:16.269Z,68.96
2022-10-25T13:36:05.122Z,68.73
2022-10-25T13:39:03.998Z,68.95
2022-10-25T13:41:54.930Z,68.81
2022-10-25T13:45:40.461Z,68.54
2022-10-25T13:48:32.873Z,69.32
2022-10-25T13:51:21.785Z,69.48
2022-10-25T13:54:12.112Z,69.17
2022-10-25T13:56:58.989Z,69.20
2022-10-25T13:59:45.747Z,69.29
2022-10-25T14:02:32.538Z,69.49
2022-10-25T14:05:57.586Z,69.47
2022-10-25T14:08:44.534Z,69.48
2022-10-25T14:11:40.923Z,69.64
2022-10-25T14:14:50.625Z,69.63
2022-10-25T14:17:41.642Z,68.89
2022-10-25T14:20:31.314Z,69.08
2022-10-25T14:23:24.960Z,69.65
2022-10-25T14:26:16.685Z,69.30
2022-10-25T14:29:17.965Z,69.11
2022-10-25T14:32:12.513Z,69.23
2022-10-25T14:35:00.244Z,69.41
2022-10-25T14:37:47.914Z,69.79
2022-10-25T14:40:35.200Z,69.50
2022-10-25T14:43:31.312Z,69.56
2022-10-25T14:46:23.988Z,69.61
2022-10-25T14:49:11.370Z,69.80
2022-10-25T14:52:03.149Z,69.92
2022-10-25T14:54:58.070Z,69.92
2022-10-25T14:57:47.550Z,69.92
2022-10-25T15:00:34.560Z,70.17
2022-10-25T15:03:24.178Z,70.29
2022-10-25T15:06:13.297Z,70.48
2022-10-25T15:09:40.714Z,70.59
2022-10-25T15:12:10.876Z,70.65
2022-10-25T15:15:19.291Z,70.92
2022-10-25T15:18:37.883Z,70.99
2022-10-25T15:21:38.887Z,71.16
2022-10-25T15:24:27.491Z,71.36
2022-10-25T15:27:27.031Z,71.27
2022-10-25T15:30:38.182Z,71.58
2022-10-25T15:33:28.624Z,71.75
2022-10-25T15:36:22.613Z,72.00
2022-10-25T15:39:25.947Z,71.94
2022-10-25T15:42:15.346Z,72.22
2022-10-25T15:45:05.000Z,71.87
2022-10-25T15:47:53.518Z,72.16
2022-10-25T15:50:53.211Z,71.82
2022-10-25T15:53:40.038Z,71.77
2022-10-25T15:56:27.624Z,71.61
2022-10-25T16:02:06.595Z,71.48
2022-10-25T16:04:55.262Z,71.36
2022-10-25T16:07:42.116Z,71.43
2022-10-25T16:10:31.320Z,71.41
2022-10-25T16:13:33.192Z,71.25
2022-10-25T16:16:43.317Z,71.20
2022-10-25T16:19:31.820Z,71.32
2022-10-25T16:22:18.671Z,71.54
2022-10-25T16:25:05.729Z,71.18
2022-10-25T16:27:53.648Z,71.42
2022-10-25T16:30:43.759Z,71.44
2022-10-25T16:33:30.993Z,71.49
2022-10-25T16:36:17.954Z,71.63
2022-10-25T16:39:06.374Z,71.95
2022-10-25T16:41:55.761Z,71.79
2022-10-25T16:44:43.364Z,71.91
2022-10-25T16:47:30.060Z,71.95
2022-10-25T16:50:23.034Z,72.08
2022-10-25T16:53:13.190Z,72.19
2022-10-25T16:56:00.203Z,72.35
2022-10-25T16:58:47.202Z,72.39
2022-10-25T17:01:37.985Z,72.28
2022-10-25T17:04:28.068Z,57.79
2022-10-25T17:07:17.751Z,72.69
2022-10-25T17:10:05.180Z,72.59
2022-10-25T17:13:01.408Z,72.69
2022-10-25T17:15:52.150Z,72.72
2022-10-25T17:18:39.193Z,72.83
2022-10-25T17:21:26.261Z,73.11
2022-10-25T17:24:12.889Z,72.86
2022-10-25T17:27:01.687Z,72.91
2022-10-25T17:29:48.635Z,73.13
2022-10-25T17:32:38.514Z,73.31
2022-10-25T17:35:29.783Z,73.19
2022-10-25T17:38:16.903Z,73.22
2022-10-25T17:41:05.582Z,73.32
2022-10-25T17:43:55.933Z,73.47
2022-10-25T17:49:36.114Z,73.48
2022-10-25T17:52:22.999Z,73.74
2022-10-25T17:55:11.172Z,73.70
2022-10-25T17:57:57.890Z,73.70
2022-10-25T18:00:45.520Z,73.68
2022-10-25T18:03:33.057Z,73.80
2022-10-25T18:09:14.839Z,73.76
2022-10-25T18:12:01.918Z,74.03
2022-10-25T18:14:52.138Z,74.01
2022-10-25T18:17:43.343Z,74.09
2022-10-25T18:20:30.120Z,74.05
2022-10-25T18:23:17.977Z,74.04
2022-10-25T18:26:06.580Z,74.06
2022-10-25T18:28:54.310Z,74.19
2022-10-25T18:31:40.870Z,74.39
2022-10-25T18:34:28.600Z,74.61
2022-10-25T18:37:15.388Z,74.36
2022-10-25T18:40:02.099Z,74.38
2022-10-25T18:42:50.742Z,74.44
2022-10-25T18:45:38.167Z,74.45
2022-10-25T18:48:25.998Z,74.38
2022-10-25T18:51:14.991Z,75.00
2022-10-25T18:54:02.871Z,74.65
2022-10-25T18:56:50.126Z,74.80
2022-10-25T18:59:36.971Z,74.95
2022-10-25T19:02:25.886Z,75.29
2022-10-25T19:05:12.909Z,75.38
2022-10-25T19:08:00.347Z,75.41
2022-10-25T19:10:47.715Z,75.39
2022-10-25T19:13:35.204Z,75.74
2022-10-25T19:16:23.680Z,75.62
2022-10-25T19:19:12.221Z,75.81
2022-10-25T19:21:58.835Z,75.82
2022-10-25T19:24:45.742Z,75.75
2022-10-25T19:27:32.660Z,75.77
2022-10-25T19:30:19.898Z,75.76
2022-10-25T19:33:06.965Z,75.76
2022-10-25T19:35:54.084Z,75.69
2022-10-25T19:38:41.680Z,75.87
2022-10-25T19:41:29.044Z,75.76
2022-10-25T19:44:15.661Z,75.75
2022-10-25T19:47:04.174Z,75.83
2022-10-25T19:49:51.019Z,75.63
2022-10-25T19:52:38.925Z,75.81
2022-10-25T19:55:26.041Z,75.76
2022-10-25T19:58:13.369Z,75.66
2022-10-25T20:01:13.228Z,75.82
2022-10-25T20:04:01.395Z,75.79
2022-10-25T20:06:48.292Z,75.75
2022-10-25T20:09:35.152Z,75.77
2022-10-25T20:12:22.126Z,75.78
2022-10-25T20:15:09.489Z,75.75
2022-10-25T20:17:55.975Z,75.30
2022-10-25T20:20:43.203Z,75.42
2022-10-25T20:23:30.691Z,75.33
2022-10-25T20:26:20.398Z,74.74
2022-10-25T20:29:16.964Z,74.94
2022-10-25T20:32:07.317Z,75.34
2022-10-25T20:34:55.708Z,75.50
2022-10-25T20:37:42.672Z,75.89
2022-10-25T20:40:29.326Z,75.74
2022-10-25T20:43:16.430Z,75.85
2022-10-25T20:46:03.872Z,75.90
2022-10-25T20:48:51.835Z,76.22
2022-10-25T20:51:38.483Z,76.33
2022-10-25T20:54:25.758Z,76.34
2022-10-25T20:57:12.397Z,76.19
2022-10-25T20:59:59.240Z,76.11
2022-10-25T21:02:45.688Z,76.36
2022-10-25T21:05:32.712Z,76.20
2022-10-25T21:08:21.257Z,76.53
2022-10-25T21:11:11.892Z,76.68
2022-10-25T21:13:58.438Z,76.89
2022-10-25T21:16:45.522Z,77.06
2022-10-25T21:19:35.550Z,77.15
2022-10-25T21:22:22.989Z,77.30
2022-10-25T21:25:09.877Z,77.27
2022-10-25T21:27:57.312Z,77.13
2022-10-25T21:30:46.092Z,77.09
2022-10-25T21:33:33.280Z,77.27
2022-10-25T21:36:20.688Z,77.08
2022-10-25T21:39:07.519Z,77.24
2022-10-25T21:41:54.393Z,77.38
2022-10-25T21:44:41.409Z,77.20
2022-10-25T21:47:27.900Z,77.36
2022-10-25T21:50:16.010Z,77.51
2022-10-25T21:53:02.905Z,77.34
2022-10-25T21:55:49.813Z,77.18
2022-10-25T21:58:37.407Z,77.13
2022-10-25T22:01:28.505Z,77.22
2022-10-25T22:04:16.303Z,77.12
2022-10-25T22:07:03.459Z,77.19
2022-10-25T22:09:50.226Z,77.05
2022-10-25T22:12:37.444Z,77.15
2022-10-25T22:15:24.320Z,77.15
2022-10-25T22:18:12.146Z,76.97
2022-10-25T22:21:02.602Z,76.90
2022-10-25T22:23:49.859Z,77.03
2022-10-25T22:26:38.892Z,76.90
2022-10-25T22:29:25.820Z,76.97
2022-10-25T22:32:12.446Z,76.75
2022-10-25T22:34:59.545Z,76.61
2022-10-25T22:37:46.576Z,76.73
2022-10-25T22:40:33.827Z,77.06
2022-10-25T22:43:20.448Z,77.28
2022-10-25T22:46:11.660Z,77.29
2022-10-25T22:48:59.900Z,77.42
2022-10-25T22:51:47.137Z,77.55
2022-10-25T22:54:33.823Z,77.64
2022-10-25T22:57:21.641Z,77.87
2022-10-25T23:00:12.230Z,77.98
2022-10-25T23:02:59.378Z,78.29
2022-10-25T23:05:45.898Z,78.35
2022-10-25T23:08:33.142Z,78.33
2022-10-25T23:11:22.084Z,78.43
2022-10-25T23:14:13.473Z,78.58
2022-10-25T23:17:03.019Z,78.54
2022-10-25T23:19:49.983Z,78.59
2022-10-25T23:22:36.661Z,78.42
2022-10-25T23:25:23.481Z,78.37
2022-10-25T23:28:10.442Z,78.47
2022-10-25T23:31:04.055Z,78.51
2022-10-25T23:33:53.130Z,78.50
2022-10-25T23:36:40.222Z,78.48
2022-10-25T23:39:26.959Z,78.37
2022-10-25T23:42:13.881Z,78.20
2022-10-25T23:45:03.213Z,78.24
2022-10-25T23:47:50.401Z,78.12
2022-10-25T23:50:37.296Z,77.73
2022-10-25T23:53:24.627Z,77.93
2022-10-25T23:56:13.183Z,77.72
2022-10-25T23:59:00.638Z,77.42
